KAKQ/AKQ METAR and TAF weather

Enter ICAO airport designator
Station Type Date Time Source
KAKQ METAR 2021/04/18 00:54 UTC NOAA

KAKQ 180054Z AUTO VRB03KT 10SM BKN080 OVC110 14/08 A2984 RMK AO2 SLP105 T01440083


Station Type Date Time Source
KAKQ Decoded METAR 2021/04/18 00:54 UTC NOAA

WAKEFIELD MUNICIPAL AIRPOR, VA, United States (KAKQ) 36-59N 077-00W 33M
Apr 17, 2021 - 08:54 PM EDT / 2021.04.18 0054 UTC
Wind: Variable at 3 MPH (3 KT):0
Visibility: 10 mile(s):0
Sky conditions: overcast
Temperature: 57.9 F (14.4 C)
Dew Point: 46.9 F (8.3 C)
Relative Humidity: 66%
Pressure (altimeter): 29.84 in. Hg (1010 hPa)
ob: KAKQ 180054Z AUTO VRB03KT 10SM BKN080 OVC110 14/08 A2984 RMK AO2 SLP105 T01440083
cycle: 1

Station Type Date Time Source
KAKQ TAF UTC NOAA

Error!

Example: see airport list